Time;durP1;ratioP1;P1;durP2;ratioP2;P2;SDS_P1;SDS_P2;PMS_P1;PMS_P2;Temp;Humidity;BMP_temperature;BMP_pressure;BME280_temperature;BME280_humidity;BME280_pressure;Samples;Min_cycle;Max_cycle;Signal;HPM_P1;HPM_P2
2023/06/12 00:01:22;;;;;;;3.00;2.65;;;15.90;1.00;;;;;;5133443;28;20107;-65
2023/06/12 00:03:56;;;;;;;3.72;2.80;;;15.80;1.00;;;;;;5148626;28;20035;-65
2023/06/12 00:06:30;;;;;;;5.05;3.25;;;15.70;1.00;;;;;;5132373;28;20054;-66
2023/06/12 00:09:05;;;;;;;3.10;2.80;;;15.70;1.00;;;;;;5127004;28;20031;-67
2023/06/12 00:11:40;;;;;;;3.10;2.80;;;15.70;1.00;;;;;;5154202;28;20043;-64
2023/06/12 00:14:13;;;;;;;3.55;2.63;;;15.70;1.00;;;;;;5142702;28;20026;-65
2023/06/12 00:16:46;;;;;;;4.18;2.80;;;15.70;1.00;;;;;;5137140;28;20034;-67
2023/06/12 00:19:18;;;;;;;3.83;2.55;;;15.70;1.00;;;;;;5111288;28;20043;-66
2023/06/12 00:21:50;;;;;;;3.33;2.45;;;15.70;1.00;;;;;;5132753;28;20247;-68
2023/06/12 00:24:24;;;;;;;3.35;2.88;;;15.70;1.00;;;;;;5142311;28;20030;-67
2023/06/12 00:26:58;;;;;;;3.17;2.45;;;15.60;1.00;;;;;;5144394;28;20030;-66
2023/06/12 00:29:30;;;;;;;4.10;3.40;;;15.60;1.00;;;;;;5111586;28;20259;-66
2023/06/12 00:32:04;;;;;;;5.30;2.92;;;15.50;1.00;;;;;;5138002;28;20038;-67
2023/06/12 00:34:40;;;;;;;2.80;2.60;;;15.50;1.00;;;;;;5144315;28;20563;-65
2023/06/12 00:37:12;;;;;;;3.45;2.75;;;15.50;1.00;;;;;;5140135;28;20045;-67
2023/06/12 00:39:44;;;;;;;3.08;2.45;;;15.50;1.00;;;;;;5142894;28;20034;-66
2023/06/12 00:42:16;;;;;;;2.83;2.45;;;15.40;7.90;;;;;;5139411;28;20033;-67
2023/06/12 00:44:50;;;;;;;3.17;2.85;;;15.40;94.80;;;;;;5142731;28;20422;-68
2023/06/12 00:47:22;;;;;;;4.72;2.88;;;15.30;99.90;;;;;;5124956;28;20034;-67
2023/06/12 00:49:54;;;;;;;6.13;2.75;;;15.30;99.90;;;;;;5126369;28;20049;-67
2023/06/12 00:52:34;;;;;;;3.10;2.38;;;15.20;99.90;;;;;;5138292;28;20034;-67
2023/06/12 00:55:10;;;;;;;3.25;2.83;;;15.20;99.90;;;;;;5142657;28;20042;-67
2023/06/12 00:57:46;;;;;;;5.38;2.80;;;15.20;99.90;;;;;;5150709;28;20031;-67
2023/06/12 01:00:19;;;;;;;9.15;3.03;;;15.30;99.90;;;;;;5144865;28;20050;-65
2023/06/12 01:02:54;;;;;;;4.47;2.95;;;15.30;99.90;;;;;;5193087;23;20050;-69
2023/06/12 01:05:38;;;;;;;2.58;2.38;;;15.40;86.70;;;;;;5155328;28;20616;-66
2023/06/12 01:08:34;;;;;;;3.40;3.08;;;15.40;18.70;;;;;;5176795;28;20038;-68
2023/06/12 01:11:11;;;;;;;3.30;2.42;;;15.40;31.40;;;;;;5184079;28;20022;-68
2023/06/12 01:13:42;;;;;;;6.47;3.42;;;15.40;34.60;;;;;;5137019;28;20041;-66
2023/06/12 01:16:16;;;;;;;2.63;2.05;;;15.40;23.50;;;;;;5155284;28;20048;-68
2023/06/12 01:18:50;;;;;;;3.83;2.65;;;15.40;99.90;;;;;;5161332;28;20052;-66
2023/06/12 01:21:29;;;;;;;2.93;2.70;;;15.30;99.90;;;;;;5162669;28;20034;-68
2023/06/12 01:24:25;;;;;;;5.22;2.83;;;15.20;99.90;;;;;;5178864;28;20026;-69
2023/06/12 01:27:06;;;;;;;4.95;2.42;;;15.00;99.90;;;;;;5178656;28;20064;-66
2023/06/12 01:29:59;;;;;;;3.50;2.65;;;14.90;99.90;;;;;;5141473;28;20046;-66
2023/06/12 01:32:32;;;;;;;3.85;3.30;;;14.80;99.90;;;;;;5159203;28;20030;-67
2023/06/12 01:35:17;;;;;;;3.03;2.72;;;14.80;99.90;;;;;;5157592;28;20038;-67
2023/06/12 01:37:56;;;;;;;3.42;2.60;;;14.70;99.90;;;;;;5140729;28;20030;-67
2023/06/12 01:40:30;;;;;;;3.85;2.65;;;14.70;99.90;;;;;;5159067;28;20073;-68
2023/06/12 01:43:01;;;;;;;3.83;3.10;;;14.70;1.00;;;;;;5142566;28;20049;-67
2023/06/12 01:45:33;;;;;;;3.33;2.83;;;14.60;1.00;;;;;;5159201;28;20561;-66
2023/06/12 01:48:07;;;;;;;3.10;2.50;;;14.50;1.00;;;;;;5181988;28;20045;-69
2023/06/12 01:50:38;;;;;;;3.78;2.83;;;14.60;1.00;;;;;;5154077;28;20038;-67
2023/06/12 01:53:16;;;;;;;3.30;2.78;;;14.60;1.00;;;;;;5175443;28;20048;-68
2023/06/12 01:55:49;;;;;;;3.05;2.75;;;14.60;1.00;;;;;;5156183;28;20034;-68
2023/06/12 01:58:24;;;;;;;3.83;3.10;;;14.70;1.00;;;;;;5129347;28;20506;-68
2023/06/12 02:00:55;;;;;;;2.70;2.50;;;14.70;1.00;;;;;;5163396;28;20542;-68
2023/06/12 02:03:30;;;;;;;3.53;2.90;;;14.70;1.00;;;;;;5143540;28;20041;-68
2023/06/12 02:06:05;;;;;;;5.72;3.30;;;14.80;1.00;;;;;;5125927;28;20362;-68
2023/06/12 02:08:37;;;;;;;5.43;2.60;;;14.70;1.00;;;;;;5140844;28;20040;-69
2023/06/12 02:11:11;;;;;;;3.30;2.85;;;14.70;1.00;;;;;;5136631;28;20025;-67
2023/06/12 02:13:42;;;;;;;4.97;2.47;;;14.70;1.00;;;;;;5141124;28;20042;-67
2023/06/12 02:16:16;;;;;;;4.32;3.58;;;14.70;1.00;;;;;;5137192;28;20260;-65
2023/06/12 02:18:50;;;;;;;2.80;2.50;;;14.70;1.00;;;;;;5156156;28;20038;-66
2023/06/12 02:21:25;;;;;;;3.97;3.03;;;14.70;1.00;;;;;;5140760;28;20050;-68
2023/06/12 02:24:00;;;;;;;2.25;2.05;;;14.70;1.00;;;;;;5138006;28;20045;-67
2023/06/12 02:26:32;;;;;;;2.92;2.58;;;14.60;1.00;;;;;;5152688;28;20030;-67
2023/06/12 02:29:13;;;;;;;4.05;2.58;;;14.50;1.00;;;;;;5127584;28;20358;-67
2023/06/12 02:31:46;;;;;;;2.92;2.63;;;14.50;1.00;;;;;;5120559;28;20204;-67
2023/06/12 02:34:18;;;;;;;3.77;2.20;;;14.40;1.00;;;;;;5137805;28;20034;-68
2023/06/12 02:36:52;;;;;;;3.33;2.83;;;14.40;1.00;;;;;;5151318;28;20280;-67
2023/06/12 02:39:23;;;;;;;3.15;2.47;;;14.40;1.00;;;;;;5119481;28;20045;-67
2023/06/12 02:41:57;;;;;;;1.98;1.88;;;14.40;1.00;;;;;;5119843;28;20100;-68
2023/06/12 02:44:31;;;;;;;3.55;2.55;;;14.50;1.00;;;;;;5135284;28;20030;-68
2023/06/12 02:47:03;;;;;;;2.30;2.10;;;14.50;1.00;;;;;;5120377;28;20030;-67
2023/06/12 02:49:44;;;;;;;5.20;3.40;;;14.50;1.00;;;;;;5140360;28;20044;-69
2023/06/12 02:52:15;;;;;;;3.60;2.92;;;14.50;1.00;;;;;;5160242;28;20353;-66
2023/06/12 02:54:46;;;;;;;3.20;2.88;;;14.50;1.00;;;;;;5123086;28;20054;-67
2023/06/12 02:57:21;;;;;;;2.90;2.60;;;14.60;1.00;;;;;;5134991;28;20052;-67
2023/06/12 02:59:52;;;;;;;3.58;2.28;;;14.60;1.00;;;;;;5140336;28;20052;-65
2023/06/12 03:02:24;;;;;;;3.03;2.72;;;14.70;1.00;;;;;;5142796;28;20048;-67
2023/06/12 03:04:55;;;;;;;3.47;2.97;;;14.70;1.00;;;;;;5131486;28;20044;-68
2023/06/12 03:07:28;;;;;;;2.95;2.38;;;14.80;1.00;;;;;;5158218;28;20060;-67
2023/06/12 03:10:03;;;;;;;2.85;2.60;;;14.80;1.00;;;;;;5126604;28;20068;-68
2023/06/12 03:12:35;;;;;;;4.35;2.50;;;14.90;1.00;;;;;;5121131;28;20030;-66
2023/06/12 03:15:09;;;;;;;2.53;2.30;;;14.90;99.90;;;;;;5154679;28;20058;-69
2023/06/12 03:17:41;;;;;;;2.65;2.45;;;14.90;99.90;;;;;;5132792;28;20035;-66
2023/06/12 03:20:14;;;;;;;7.63;3.65;;;15.00;99.90;;;;;;5124768;28;20045;-68
2023/06/12 03:22:45;;;;;;;3.70;2.97;;;15.20;99.90;;;;;;5109207;28;20369;-67
2023/06/12 03:25:18;;;;;;;4.03;2.78;;;15.20;99.90;;;;;;5143373;28;20807;-68
2023/06/12 03:27:50;;;;;;;3.90;3.30;;;15.30;99.90;;;;;;5116154;28;20042;-68
2023/06/12 03:30:21;;;;;;;4.05;2.88;;;15.30;99.90;;;;;;5142547;28;20038;-65
2023/06/12 03:32:56;;;;;;;3.67;3.38;;;15.30;99.90;;;;;;5148227;28;20607;-65
2023/06/12 03:35:29;;;;;;;3.47;2.60;;;15.30;99.90;;;;;;5124388;28;20034;-67
2023/06/12 03:38:03;;;;;;;2.87;2.50;;;15.20;99.90;;;;;;5124643;28;20039;-68
2023/06/12 03:40:34;;;;;;;3.20;2.80;;;15.10;99.90;;;;;;5124757;28;20026;-66
2023/06/12 03:43:06;;;;;;;3.90;2.95;;;15.10;99.90;;;;;;5142131;28;20357;-66
2023/06/12 03:45:40;;;;;;;3.33;2.72;;;15.10;99.90;;;;;;5120608;28;20047;-68
2023/06/12 03:48:11;;;;;;;2.83;2.63;;;15.10;99.90;;;;;;5116027;28;20081;-67
2023/06/12 03:50:43;;;;;;;3.42;2.67;;;15.10;99.90;;;;;;5141501;28;20046;-67
2023/06/12 03:53:14;;;;;;;2.80;2.53;;;15.00;99.90;;;;;;5125618;28;20049;-67
2023/06/12 03:55:45;;;;;;;9.07;3.35;;;15.00;99.90;;;;;;5159875;28;20026;-68
2023/06/12 03:58:20;;;;;;;2.72;2.53;;;15.10;99.90;;;;;;5161797;28;20034;-65
2023/06/12 04:00:54;;;;;;;3.35;3.05;;;15.30;99.90;;;;;;5159107;28;20038;-66
2023/06/12 04:03:28;;;;;;;3.08;2.58;;;15.40;99.90;;;;;;5130593;28;20045;-67
2023/06/12 04:06:00;;;;;;;;;;;15.40;99.90;;;;;;5105526;28;20522;-67
2023/06/12 04:08:34;;;;;;;6.32;3.10;;;15.50;99.90;;;;;;5161583;28;19902;-68
2023/06/12 04:11:08;;;;;;;3.90;2.38;;;15.60;99.90;;;;;;5128405;28;20038;-65
2023/06/12 04:13:42;;;;;;;4.15;2.95;;;15.70;99.90;;;;;;5131792;28;20044;-68
2023/06/12 04:16:15;;;;;;;8.00;3.17;;;15.70;30.50;;;;;;5139370;28;20438;-67
2023/06/12 04:18:54;;;;;;;3.83;2.95;;;15.80;14.90;;;;;;5142548;28;20038;-68
2023/06/12 04:21:27;;;;;;;3.15;2.85;;;15.90;14.60;;;;;;5144580;28;20038;-66
2023/06/12 04:24:04;;;;;;;4.95;3.50;;;16.00;1.00;;;;;;5142828;28;20069;-65
2023/06/12 04:26:39;;;;;;;3.67;3.22;;;16.10;1.00;;;;;;5141542;28;20342;-66
2023/06/12 04:29:14;;;;;;;3.15;2.63;;;16.10;1.00;;;;;;5122936;28;20049;-69
2023/06/12 04:31:53;;;;;;;3.40;2.88;;;16.10;1.00;;;;;;5137523;28;20029;-70
2023/06/12 04:34:24;;;;;;;4.22;3.00;;;16.20;1.00;;;;;;5158584;28;20029;-69
2023/06/12 04:36:59;;;;;;;3.28;2.90;;;16.40;1.00;;;;;;5149762;28;20026;-68
2023/06/12 04:39:30;;;;;;;;;;;16.50;1.00;;;;;;5147984;28;20112;-67
2023/06/12 04:42:05;;;;;;;2.58;2.38;;;16.40;1.00;;;;;;5157343;28;19919;-68
2023/06/12 04:44:40;;;;;;;2.75;2.55;;;16.40;1.00;;;;;;5161687;28;20037;-67
2023/06/12 04:47:14;;;;;;;;;;;16.50;1.00;;;;;;5130687;28;20030;-68
2023/06/12 04:49:46;;;;;;;2.92;2.60;;;16.70;1.00;;;;;;5149077;28;19936;-66
2023/06/12 04:52:20;;;;;;;3.65;3.00;;;16.60;99.90;;;;;;5152185;28;20038;-66
2023/06/12 04:54:52;;;;;;;;;;;16.50;1.00;;;;;;5143165;28;20040;-68
2023/06/12 04:57:23;;;;;;;5.25;2.95;;;16.40;1.00;;;;;;5137755;28;19925;-66
2023/06/12 04:59:55;;;;;;;3.20;2.58;;;16.40;1.00;;;;;;5144502;28;20034;-67
2023/06/12 05:02:26;;;;;;;3.95;2.70;;;16.40;1.00;;;;;;5160570;28;20050;-66
2023/06/12 05:04:57;;;;;;;3.47;2.90;;;16.40;1.00;;;;;;5130278;28;20051;-67
2023/06/12 05:07:35;;;;;;;6.40;2.90;;;16.60;1.00;;;;;;5150696;28;20204;-67
2023/06/12 05:10:07;;;;;;;3.25;2.95;;;16.70;1.00;;;;;;5136640;28;20358;-66
2023/06/12 05:12:40;;;;;;;2.70;2.50;;;16.80;99.90;;;;;;5123166;28;20030;-68
2023/06/12 05:15:11;;;;;;;3.33;2.72;;;16.90;99.90;;;;;;5163285;28;20568;-68
2023/06/12 05:17:43;;;;;;;2.83;2.60;;;17.00;99.90;;;;;;5154829;28;20045;-67
2023/06/12 05:20:15;;;;;;;2.85;2.58;;;17.00;99.90;;;;;;5118127;28;20046;-66
2023/06/12 05:22:46;;;;;;;3.38;3.03;;;17.10;99.90;;;;;;5141914;28;20049;-66
2023/06/12 05:25:23;;;;;;;4.03;2.83;;;17.10;99.90;;;;;;5133050;28;20065;-68
2023/06/12 05:27:57;;;;;;;3.22;2.53;;;17.00;99.90;;;;;;5122527;28;20594;-69
2023/06/12 05:30:30;;;;;;;3.15;2.85;;;17.30;99.90;;;;;;5165310;28;20029;-67
2023/06/12 05:33:06;;;;;;;3.75;3.08;;;17.50;99.90;;;;;;5156788;28;20041;-68
2023/06/12 05:35:49;;;;;;;3.28;2.70;;;17.40;99.90;;;;;;5146322;28;20041;-68
2023/06/12 05:38:20;;;;;;;3.55;2.72;;;17.60;99.90;;;;;;5130817;28;20042;-69
2023/06/12 05:40:58;;;;;;;4.68;3.38;;;17.80;1.00;;;;;;5132863;28;20054;-66
2023/06/12 05:43:29;;;;;;;4.80;2.50;;;18.00;1.00;;;;;;5142262;28;20026;-66
2023/06/12 05:46:01;;;;;;;2.85;2.55;;;18.10;1.00;;;;;;5122056;28;20575;-69
2023/06/12 05:48:35;;;;;;;3.42;2.42;;;18.20;1.00;;;;;;5135040;28;20030;-68
2023/06/12 05:51:07;;;;;;;2.53;2.33;;;18.80;1.00;;;;;;5113792;28;20235;-67
2023/06/12 05:53:44;;;;;;;4.07;2.67;;;18.80;1.00;;;;;;5122130;28;20042;-65
2023/06/12 05:56:15;;;;;;;2.50;1.83;;;19.00;99.90;;;;;;5150954;28;20031;-69
2023/06/12 05:58:47;;;;;;;2.75;2.45;;;19.30;99.90;;;;;;5118374;28;20041;-67
2023/06/12 06:01:22;;;;;;;2.28;2.08;;;19.20;1.00;;;;;;5114816;28;20057;-67
2023/06/12 06:03:55;;;;;;;2.45;2.25;;;19.60;1.00;;;;;;5140433;28;20057;-66
2023/06/12 06:06:27;;;;;;;2.40;2.20;;;19.30;1.00;;;;;;5139087;28;20082;-68
2023/06/12 06:09:03;;;;;;;2.88;2.38;;;19.10;1.00;;;;;;5119027;28;20034;-69
2023/06/12 06:11:36;;;;;;;4.18;2.65;;;19.10;1.00;;;;;;5142981;28;20044;-70
2023/06/12 06:14:12;;;;;;;2.67;2.30;;;19.00;1.00;;;;;;5176450;28;20420;-68
2023/06/12 06:16:43;;;;;;;3.63;2.05;;;18.90;1.00;;;;;;5123059;28;20385;-68
2023/06/12 06:19:17;;;;;;;2.67;2.47;;;18.60;1.00;;;;;;5139173;28;20039;-69
2023/06/12 06:21:49;;;;;;;3.20;2.40;;;18.40;1.00;;;;;;5163800;28;20046;-67
2023/06/12 06:24:20;;;;;;;3.80;2.47;;;18.30;1.00;;;;;;5138189;28;20042;-65
2023/06/12 06:26:52;;;;;;;6.53;2.60;;;18.60;1.00;;;;;;5124958;28;20339;-67
2023/06/12 06:29:25;;;;;;;2.50;2.30;;;18.80;1.00;;;;;;5151146;28;20030;-67
2023/06/12 06:31:57;;;;;;;3.03;2.53;;;18.80;1.00;;;;;;5129128;28;20728;-67
2023/06/12 06:34:32;;;;;;;4.40;2.60;;;18.50;1.00;;;;;;5141296;28;20033;-65
2023/06/12 06:37:03;;;;;;;3.03;2.60;;;18.60;1.00;;;;;;5147109;28;20460;-67
2023/06/12 06:39:35;;;;;;;3.45;2.45;;;18.80;1.00;;;;;;5123906;28;20046;-68
2023/06/12 06:42:06;;;;;;;4.13;2.97;;;18.50;1.00;;;;;;5145640;28;20026;-68
2023/06/12 06:44:38;;;;;;;3.53;2.53;;;18.30;1.00;;;;;;5172637;28;20034;-69
2023/06/12 06:47:10;;;;;;;4.80;2.75;;;17.90;1.00;;;;;;5142253;28;20034;-67
2023/06/12 06:49:43;;;;;;;2.45;2.25;;;18.20;1.00;;;;;;5154781;28;20249;-66
2023/06/12 06:52:22;;;;;;;3.58;2.83;;;18.50;1.00;;;;;;5128785;28;20361;-67
2023/06/12 06:54:53;;;;;;;3.67;2.67;;;18.50;1.00;;;;;;5128735;28;20031;-68
2023/06/12 06:57:28;;;;;;;3.05;2.70;;;18.90;1.00;;;;;;5137876;28;20064;-69
2023/06/12 07:00:02;;;;;;;;;;;19.30;1.00;;;;;;5137760;28;20050;-68
2023/06/12 07:02:35;;;;;;;2.83;2.23;;;19.70;1.00;;;;;;5163378;28;20103;-69
2023/06/12 07:05:07;;;;;;;6.57;2.58;;;19.50;1.00;;;;;;5146345;28;20053;-65
2023/06/12 07:07:39;;;;;;;3.00;2.40;;;19.20;1.00;;;;;;5140725;28;20033;-68
2023/06/12 07:10:13;;;;;;;5.13;2.70;;;18.90;1.00;;;;;;5161555;28;20025;-67
2023/06/12 07:12:44;;;;;;;2.28;2.10;;;19.60;1.00;;;;;;5149467;28;20041;-66
2023/06/12 07:15:15;;;;;;;2.88;2.40;;;20.10;99.90;;;;;;5142147;28;20032;-69
2023/06/12 07:17:50;;;;;;;3.00;2.30;;;21.20;99.90;;;;;;5154088;28;20041;-66
2023/06/12 07:20:21;;;;;;;3.03;2.75;;;20.30;99.90;;;;;;5114915;28;20034;-66
2023/06/12 07:22:52;;;;;;;2.95;2.33;;;20.60;99.90;;;;;;5133355;28;20072;-67
2023/06/12 07:25:24;;;;;;;3.13;2.55;;;20.80;99.90;;;;;;5161053;28;20038;-68
2023/06/12 07:28:01;;;;;;;3.40;2.60;;;20.90;1.00;;;;;;5162158;28;20346;-64
2023/06/12 07:30:35;;;;;;;2.53;2.08;;;20.60;1.00;;;;;;5159129;28;20041;-69
2023/06/12 07:33:06;;;;;;;4.40;2.50;;;20.20;1.00;;;;;;5166036;28;20637;-69
2023/06/12 07:35:38;;;;;;;2.70;2.50;;;20.70;1.00;;;;;;5144066;28;20045;-68
2023/06/12 07:38:09;;;;;;;3.08;2.63;;;20.10;1.00;;;;;;5161333;28;20038;-67
2023/06/12 07:40:41;;;;;;;3.10;2.58;;;19.60;1.00;;;;;;5128546;28;20030;-69
2023/06/12 07:43:12;;;;;;;3.30;3.00;;;19.40;1.00;;;;;;5133930;28;20054;-69
2023/06/12 07:45:46;;;;;;;3.53;2.55;;;19.10;1.00;;;;;;5137030;28;20038;-70
2023/06/12 07:48:19;;;;;;;3.10;2.53;;;19.10;99.90;;;;;;5137050;28;20042;-71
2023/06/12 07:50:56;;;;;;;3.83;3.07;;;19.50;18.90;;;;;;5134511;28;20272;-69
2023/06/12 07:53:31;;;;;;;2.72;2.47;;;19.80;1.00;;;;;;5126108;28;20046;-67
2023/06/12 07:56:03;;;;;;;4.18;2.92;;;20.20;1.00;;;;;;5127082;28;20034;-68
2023/06/12 07:58:40;;;;;;;3.47;2.53;;;20.20;1.00;;;;;;5118040;28;20026;-70
2023/06/12 08:01:15;;;;;;;3.55;3.25;;;20.60;1.00;;;;;;5142644;28;20025;-67
2023/06/12 08:03:56;;;;;;;3.67;2.72;;;21.00;1.00;;;;;;5172890;28;20034;-68
2023/06/12 08:06:34;;;;;;;2.65;2.42;;;20.70;1.00;;;;;;5134763;28;20073;-69
2023/06/12 08:09:09;;;;;;;2.63;2.30;;;21.10;1.00;;;;;;5155245;28;20042;-68
2023/06/12 08:11:41;;;;;;;2.67;2.38;;;21.60;1.00;;;;;;5164829;28;20045;-68
2023/06/12 08:14:14;;;;;;;2.78;2.58;;;21.70;1.00;;;;;;5143677;28;20038;-70
2023/06/12 08:16:46;;;;;;;3.42;2.70;;;21.50;1.00;;;;;;5154746;28;20046;-68
2023/06/12 08:19:20;;;;;;;3.47;2.80;;;21.10;1.00;;;;;;5159254;28;20022;-70
2023/06/12 08:21:51;;;;;;;2.53;2.33;;;20.50;1.00;;;;;;5159731;28;20038;-65
2023/06/12 08:24:23;;;;;;;3.13;2.20;;;20.30;1.00;;;;;;5127146;28;20048;-69
2023/06/12 08:27:00;;;;;;;3.67;3.38;;;20.10;1.00;;;;;;5149115;28;20038;-68
2023/06/12 08:29:34;;;;;;;3.15;2.58;;;20.30;1.00;;;;;;5149987;28;20377;-69
2023/06/12 08:32:12;;;;;;;3.13;2.60;;;21.10;1.00;;;;;;5161593;28;20033;-69
2023/06/12 08:34:43;;;;;;;2.67;2.42;;;22.00;1.00;;;;;;5178977;28;20356;-66
2023/06/12 08:37:15;;;;;;;2.42;2.22;;;22.10;99.90;;;;;;5157122;28;20042;-68
2023/06/12 08:39:49;;;;;;;2.58;2.20;;;22.60;40.80;;;;;;5160715;28;20044;-69
2023/06/12 08:42:21;;;;;;;3.15;2.85;;;22.50;1.00;;;;;;5158789;28;20042;-69
2023/06/12 08:45:05;;;;;;;2.45;2.25;;;21.60;1.00;;;;;;5141560;28;20042;-70
2023/06/12 08:47:39;;;;;;;2.47;2.27;;;21.30;1.00;;;;;;5144695;28;20038;-70
2023/06/12 08:50:13;;;;;;;;;;;21.30;1.00;;;;;;5158950;28;20038;-69
2023/06/12 08:52:50;;;;;;;2.72;2.28;;;21.20;1.00;;;;;;5158792;28;19920;-69
2023/06/12 08:55:28;;;;;;;3.08;2.50;;;21.70;1.00;;;;;;5145229;28;20043;-70
2023/06/12 08:58:06;;;;;;;3.10;2.75;;;21.50;1.00;;;;;;5143448;28;20034;-69
2023/06/12 09:00:37;;;;;;;2.03;1.83;;;21.50;1.00;;;;;;5155821;28;20475;-67
2023/06/12 09:03:14;;;;;;;2.05;1.85;;;21.30;1.00;;;;;;5155477;28;20545;-67
2023/06/12 09:05:46;;;;;;;2.90;2.10;;;21.40;1.00;;;;;;5146253;28;20057;-68
2023/06/12 09:08:18;;;;;;;2.70;2.40;;;21.50;1.00;;;;;;5147420;28;20552;-67
2023/06/12 09:10:52;;;;;;;3.47;2.60;;;20.70;1.00;;;;;;5157117;28;20036;-68
2023/06/12 09:13:26;;;;;;;2.67;2.40;;;21.20;1.00;;;;;;5158549;28;20038;-66
2023/06/12 09:15:57;;;;;;;2.65;2.45;;;21.30;1.00;;;;;;5148027;28;20365;-67
2023/06/12 09:18:29;;;;;;;2.83;2.47;;;21.10;1.00;;;;;;5156523;28;20038;-67
2023/06/12 09:21:05;;;;;;;2.45;2.25;;;21.10;1.00;;;;;;5141381;28;20061;-67
2023/06/12 09:23:40;;;;;;;3.38;2.30;;;21.00;1.00;;;;;;5137429;28;20046;-68
2023/06/12 09:26:16;;;;;;;2.60;2.28;;;21.20;1.00;;;;;;5157911;28;20045;-66
2023/06/12 09:28:54;;;;;;;2.20;2.00;;;21.50;1.00;;;;;;5145933;28;20042;-69
2023/06/12 09:31:34;;;;;;;3.60;2.63;;;21.70;1.00;;;;;;5155068;28;20054;-70
2023/06/12 09:34:13;;;;;;;2.30;2.10;;;22.80;1.00;;;;;;5173002;28;20036;-69
2023/06/12 09:36:51;;;;;;;2.90;2.35;;;22.30;1.00;;;;;;5141095;28;20069;-67
2023/06/12 09:39:27;;;;;;;2.67;2.35;;;21.50;1.00;;;;;;5163068;28;20041;-67
2023/06/12 09:42:00;;;;;;;2.55;2.35;;;21.90;1.00;;;;;;5148840;28;20041;-69
2023/06/12 09:44:34;;;;;;;2.90;2.40;;;21.50;1.00;;;;;;5155263;28;20040;-66
2023/06/12 09:47:09;;;;;;;5.25;2.25;;;21.70;1.00;;;;;;5144853;28;20042;-68
2023/06/12 09:49:40;;;;;;;2.15;1.80;;;21.80;1.00;;;;;;5125557;28;20038;-70
2023/06/12 09:52:12;;;;;;;4.25;2.05;;;22.80;1.00;;;;;;5173578;28;20065;-69
2023/06/12 09:54:46;;;;;;;2.58;2.03;;;23.90;99.90;;;;;;5157984;28;20565;-69
2023/06/12 09:57:21;;;;;;;4.18;2.50;;;23.40;99.90;;;;;;5119968;28;20038;-67
2023/06/12 09:59:59;;;;;;;3.40;2.58;;;21.70;99.90;;;;;;5157099;28;20038;-68
2023/06/12 10:02:31;;;;;;;5.28;2.53;;;20.90;99.90;;;;;;5157030;28;20041;-70
2023/06/12 10:05:10;;;;;;;3.50;2.30;;;20.40;99.90;;;;;;5142637;28;20058;-69
2023/06/12 10:07:51;;;;;;;2.15;1.95;;;20.50;99.90;;;;;;5155776;28;20014;-68
2023/06/12 10:10:23;;;;;;;2.30;2.10;;;21.40;1.00;;;;;;5140652;28;20716;-67
2023/06/12 10:12:56;;;;;;;3.03;2.10;;;21.60;99.90;;;;;;5174294;28;20037;-68
2023/06/12 10:15:31;;;;;;;2.58;2.17;;;21.10;99.90;;;;;;5155042;28;20030;-67
2023/06/12 10:18:08;;;;;;;2.58;2.15;;;20.80;99.90;;;;;;5160857;28;20040;-68
2023/06/12 10:20:44;;;;;;;2.55;2.35;;;21.30;99.90;;;;;;5126600;28;20463;-68
2023/06/12 10:23:19;;;;;;;2.40;2.20;;;22.20;99.90;;;;;;5145254;28;20273;-66
2023/06/12 10:25:57;;;;;;;3.30;1.92;;;22.00;1.00;;;;;;5158663;28;20030;-72
2023/06/12 10:28:29;;;;;;;2.70;2.00;;;22.40;74.50;;;;;;5141094;28;20031;-65
2023/06/12 10:31:20;;;;;;;4.07;2.03;;;22.20;1.00;;;;;;5153697;28;20038;-66
2023/06/12 10:34:00;;;;;;;2.05;1.75;;;23.30;1.00;;;;;;5175746;28;20025;-69
2023/06/12 10:36:43;;;;;;;2.05;1.80;;;24.00;1.00;;;;;;5150539;28;20045;-69
2023/06/12 10:39:17;;;;;;;2.28;2.08;;;24.70;1.00;;;;;;5146258;28;20037;-66
2023/06/12 10:42:10;;;;;;;3.47;2.40;;;22.90;1.00;;;;;;5158056;28;20030;-67
2023/06/12 10:44:46;;;;;;;2.47;2.28;;;22.30;1.00;;;;;;5157174;28;20226;-67
2023/06/12 10:47:23;;;;;;;1.83;1.67;;;21.80;1.00;;;;;;5166668;28;20030;-69
2023/06/12 10:49:55;;;;;;;2.00;1.77;;;21.70;1.00;;;;;;5157608;28;20038;-70
2023/06/12 10:52:29;;;;;;;1.88;1.73;;;22.60;1.00;;;;;;5147761;28;20064;-67
2023/06/12 10:55:15;;;;;;;4.78;1.98;;;24.20;1.00;;;;;;5162227;28;20030;-70
2023/06/12 10:57:54;;;;;;;1.80;1.67;;;26.20;1.00;;;;;;5162205;28;20034;-69
2023/06/12 11:00:31;;;;;;;2.00;1.83;;;26.80;99.90;;;;;;5134691;28;20041;-69
2023/06/12 11:03:04;;;;;;;2.33;1.60;;;26.70;99.90;;;;;;5171299;28;20598;-71
2023/06/12 11:05:40;;;;;;;2.25;1.77;;;27.80;99.90;;;;;;5146435;28;20046;-68
2023/06/12 11:08:12;;;;;;;1.98;1.73;;;29.00;68.80;;;;;;5174475;28;20030;-69
2023/06/12 11:10:43;;;;;;;3.53;1.48;;;29.10;37.20;;;;;;5160349;28;20036;-69
2023/06/12 11:13:21;;;;;;;2.28;1.88;;;29.10;1.00;;;;;;5139207;28;20040;-69
2023/06/12 11:15:53;;;;;;;2.10;1.48;;;27.10;1.00;;;;;;5148972;28;20048;-70
2023/06/12 11:18:25;;;;;;;1.98;1.85;;;27.30;1.00;;;;;;5129672;28;20034;-68
2023/06/12 11:20:57;;;;;;;1.75;1.45;;;29.10;1.00;;;;;;5120890;28;20035;-68
2023/06/12 11:23:29;;;;;;;2.15;1.83;;;30.00;1.00;;;;;;5121476;28;20046;-66
2023/06/12 11:26:01;;;;;;;2.40;1.95;;;29.50;1.00;;;;;;5168076;28;20052;-68
2023/06/12 11:28:39;;;;;;;3.40;1.70;;;27.30;1.00;;;;;;5137327;28;20065;-67
2023/06/12 11:31:13;;;;;;;1.88;1.75;;;28.00;1.00;;;;;;5157699;28;20037;-68
2023/06/12 11:33:45;;;;;;;1.75;1.60;;;28.60;1.00;;;;;;5141133;28;20303;-68
2023/06/12 11:36:16;;;;;;;3.17;1.58;;;30.50;1.00;;;;;;5164750;28;20058;-68
2023/06/12 11:38:47;;;;;;;1.80;1.70;;;31.40;1.00;;;;;;5182357;28;20030;-68
2023/06/12 11:41:21;;;;;;;1.58;1.48;;;30.90;1.00;;;;;;5146520;28;20036;-69
2023/06/12 11:43:53;;;;;;;2.92;1.52;;;31.50;1.00;;;;;;5143943;28;20489;-68
2023/06/12 11:46:24;;;;;;;3.45;1.65;;;30.80;1.00;;;;;;5121505;28;20049;-67
2023/06/12 11:49:01;;;;;;;1.70;1.50;;;29.10;1.00;;;;;;5153589;28;20026;-70
2023/06/12 11:51:37;;;;;;;3.00;1.90;;;30.70;1.00;;;;;;5129633;28;20052;-69
2023/06/12 11:54:11;;;;;;;2.38;1.67;;;30.90;1.00;;;;;;5162776;28;20376;-69
2023/06/12 11:56:42;;;;;;;;;;;27.80;1.00;;;;;;5144414;28;20028;-71
2023/06/12 11:59:13;;;;;;;2.15;1.92;;;25.20;99.90;;;;;;5142236;28;19983;-68
2023/06/12 12:01:48;;;;;;;2.20;1.67;;;24.10;1.00;;;;;;5115114;28;20560;-68
2023/06/12 12:04:19;;;;;;;1.90;1.70;;;24.50;1.00;;;;;;5126736;28;20038;-68
2023/06/12 12:06:58;;;;;;;2.35;1.70;;;26.10;1.00;;;;;;5139078;28;20372;-69
2023/06/12 12:09:30;;;;;;;2.13;1.40;;;28.70;1.00;;;;;;5127962;28;20038;-67
2023/06/12 12:12:11;;;;;;;1.80;1.60;;;28.70;1.00;;;;;;5163239;28;20038;-72
2023/06/12 12:14:56;;;;;;;1.60;1.45;;;28.50;1.00;;;;;;5137491;28;20049;-71
2023/06/12 12:17:32;;;;;;;3.67;1.92;;;27.30;1.00;;;;;;5125393;28;20050;-67
2023/06/12 12:20:07;;;;;;;1.88;1.58;;;26.00;99.90;;;;;;5112748;28;20046;-70
2023/06/12 12:22:43;;;;;;;2.22;1.58;;;26.40;99.90;;;;;;5141699;28;20041;-71
2023/06/12 12:25:20;;;;;;;1.92;1.58;;;27.10;99.90;;;;;;5138273;28;20050;-68
2023/06/12 12:27:51;;;;;;;1.60;1.50;;;27.90;99.90;;;;;;5168264;28;20028;-70
2023/06/12 12:30:31;;;;;;;2.10;1.73;;;28.20;99.90;;;;;;5151214;28;20033;-69
2023/06/12 12:33:03;;;;;;;2.15;1.80;;;26.60;99.90;;;;;;5139704;28;20041;-69
2023/06/12 12:35:35;;;;;;;3.22;2.42;;;25.40;99.90;;;;;;5160675;28;20080;-70
2023/06/12 12:38:11;;;;;;;1.60;1.45;;;24.00;99.90;;;;;;5164480;28;20623;-70
2023/06/12 12:40:43;;;;;;;1.58;1.48;;;24.20;99.90;;;;;;5145869;28;20033;-69
2023/06/12 12:43:16;;;;;;;2.30;2.05;;;24.50;99.90;;;;;;5128407;28;20034;-70
2023/06/12 12:45:51;;;;;;;2.47;1.88;;;25.00;99.90;;;;;;5150086;28;20037;-68
2023/06/12 12:48:23;;;;;;;1.88;1.70;;;24.20;99.90;;;;;;5138597;28;20042;-69
2023/06/12 12:50:59;;;;;;;1.73;1.60;;;23.60;99.90;;;;;;5142463;28;20042;-68
2023/06/12 12:53:35;;;;;;;3.20;1.52;;;24.80;99.90;;;;;;5142315;28;20041;-69
2023/06/12 12:56:08;;;;;;;1.48;1.38;;;26.50;99.90;;;;;;5160338;28;20377;-71
2023/06/12 12:58:40;;;;;;;4.70;1.50;;;26.90;99.90;;;;;;5110233;28;20529;-68
2023/06/12 13:01:11;;;;;;;1.40;1.30;;;27.60;99.90;;;;;;5142560;28;20042;-68
2023/06/12 13:03:45;;;;;;;1.50;1.40;;;27.40;99.90;;;;;;5143683;28;20038;-69
2023/06/12 13:06:16;;;;;;;2.95;1.38;;;25.80;99.90;;;;;;5114968;28;20769;-65
2023/06/12 13:08:50;;;;;;;1.38;1.25;;;24.80;99.90;;;;;;5153327;28;20040;-68
2023/06/12 13:11:21;;;;;;;1.63;1.50;;;26.40;99.90;;;;;;5125595;28;20244;-65
2023/06/12 13:13:53;;;;;;;3.60;2.33;;;26.90;99.90;;;;;;5131432;28;20030;-70
2023/06/12 13:16:26;;;;;;;1.58;1.30;;;27.20;99.90;;;;;;5134787;28;20046;-68
2023/06/12 13:19:00;;;;;;;2.22;1.38;;;28.30;99.90;;;;;;5124075;28;20042;-71
2023/06/12 13:21:34;;;;;;;1.30;1.20;;;28.80;99.90;;;;;;5159246;28;20037;-68
2023/06/12 13:24:08;;;;;;;2.15;1.27;;;29.40;99.90;;;;;;5111281;28;20045;-66
2023/06/12 13:26:42;;;;;;;;;;;28.90;99.90;;;;;;5150573;28;20042;-66
2023/06/12 13:29:18;;;;;;;1.60;1.27;;;28.30;99.90;;;;;;5121052;28;19914;-69
2023/06/12 13:31:49;;;;;;;2.72;1.50;;;28.30;99.90;;;;;;5156653;28;20489;-69